createdAt,value
2018-11-12T00:00:36.261Z,18.10
2018-11-12T00:01:38.935Z,18.09
2018-11-12T00:02:41.458Z,18.09
2018-11-12T00:03:43.719Z,18.09
2018-11-12T00:04:46.092Z,18.09
2018-11-12T00:05:48.989Z,18.09
2018-11-12T00:06:52.172Z,18.09
2018-11-12T00:07:54.999Z,18.10
2018-11-12T00:08:57.303Z,18.08
2018-11-12T00:09:59.873Z,18.10
2018-11-12T00:11:03.035Z,18.09
2018-11-12T00:12:05.213Z,18.09
2018-11-12T00:13:07.415Z,18.08
2018-11-12T00:14:10.750Z,18.10
2018-11-12T00:15:13.421Z,18.09
2018-11-12T00:16:15.580Z,18.08
2018-11-12T00:17:18.147Z,18.09
2018-11-12T00:18:20.540Z,18.09
2018-11-12T00:19:22.868Z,18.08
2018-11-12T00:20:25.027Z,18.09
2018-11-12T00:21:26.784Z,18.09
2018-11-12T00:22:28.606Z,18.08
2018-11-12T00:23:30.375Z,18.08
2018-11-12T00:24:32.142Z,18.09
2018-11-12T00:25:33.931Z,18.10
2018-11-12T00:26:35.686Z,18.08
2018-11-12T00:27:37.983Z,18.09
2018-11-12T00:28:39.752Z,18.09
2018-11-12T00:29:41.527Z,18.08
2018-11-12T00:30:43.287Z,18.08
2018-11-12T00:31:45.119Z,18.08
2018-11-12T00:32:47.637Z,18.08
2018-11-12T00:33:49.398Z,18.08
2018-11-12T00:34:51.187Z,18.08
2018-11-12T00:35:52.939Z,18.08
2018-11-12T00:36:54.691Z,18.08
2018-11-12T00:37:56.493Z,18.07
2018-11-12T00:38:58.328Z,18.08
2018-11-12T00:40:00.078Z,18.08
2018-11-12T00:41:01.847Z,18.09
2018-11-12T00:42:03.627Z,18.08
2018-11-12T00:43:05.469Z,18.07
2018-11-12T00:44:07.243Z,18.09
2018-11-12T00:45:09.516Z,18.08
2018-11-12T00:46:11.291Z,18.08
2018-11-12T00:47:13.057Z,18.09
2018-11-12T00:48:14.842Z,18.09
2018-11-12T00:49:16.599Z,18.08
2018-11-12T00:50:18.368Z,18.07
2018-11-12T00:51:20.158Z,18.09
2018-11-12T00:52:21.967Z,18.10
2018-11-12T00:53:23.744Z,18.09
2018-11-12T00:54:25.515Z,18.09
2018-11-12T00:55:27.287Z,18.08
2018-11-12T00:56:29.037Z,18.08
2018-11-12T00:57:30.815Z,18.07
2018-11-12T00:58:32.669Z,18.07
2018-11-12T00:59:34.452Z,18.08
2018-11-12T01:00:36.217Z,18.09
2018-11-12T01:01:38.033Z,18.09
2018-11-12T01:02:40.417Z,18.08
2018-11-12T01:03:42.197Z,18.08
2018-11-12T01:04:43.960Z,18.07
2018-11-12T01:05:45.711Z,18.06
2018-11-12T01:06:47.471Z,18.07
2018-11-12T01:07:49.413Z,18.07
2018-11-12T01:08:51.200Z,18.07
2018-11-12T01:09:53.001Z,18.07
2018-11-12T01:10:54.759Z,18.07
2018-11-12T01:11:56.581Z,18.08
2018-11-12T01:12:58.351Z,18.08
2018-11-12T01:14:00.136Z,18.07
2018-11-12T01:15:01.951Z,18.08
2018-11-12T01:16:03.749Z,18.07
2018-11-12T01:17:05.503Z,18.07
2018-11-12T01:18:07.284Z,18.06
2018-11-12T01:19:09.084Z,18.06
2018-11-12T01:20:12.221Z,18.08
2018-11-12T01:21:13.971Z,18.08
2018-11-12T01:22:15.733Z,18.07
2018-11-12T01:23:17.504Z,18.07
2018-11-12T01:24:19.355Z,18.07
2018-11-12T01:25:21.105Z,18.07
2018-11-12T01:26:22.953Z,18.07
2018-11-12T01:27:24.721Z,18.07
2018-11-12T01:28:26.479Z,18.07
2018-11-12T01:29:28.272Z,18.07
2018-11-12T01:30:30.020Z,18.07
2018-11-12T01:31:31.782Z,18.07
2018-11-12T01:32:33.534Z,18.06
2018-11-12T01:33:36.869Z,18.06
2018-11-12T01:34:38.657Z,18.07
2018-11-12T01:35:40.444Z,18.07
2018-11-12T01:36:42.233Z,18.08
2018-11-12T01:37:44.195Z,18.07
2018-11-12T01:38:46.014Z,18.07
2018-11-12T01:39:47.824Z,18.06
2018-11-12T01:40:49.584Z,18.06
2018-11-12T01:41:51.376Z,18.05
2018-11-12T01:42:53.136Z,18.05
2018-11-12T01:43:54.929Z,18.05
2018-11-12T01:44:56.715Z,18.06
2018-11-12T01:45:58.491Z,18.06
2018-11-12T01:47:00.257Z,18.05
2018-11-12T01:48:02.022Z,18.06
2018-11-12T01:49:04.234Z,18.05
2018-11-12T01:50:06.050Z,18.05
2018-11-12T01:51:07.903Z,18.07
2018-11-12T01:52:09.648Z,18.06
2018-11-12T01:53:11.422Z,18.07
2018-11-12T01:54:13.201Z,18.06
2018-11-12T01:55:17.000Z,18.06
2018-11-12T01:56:18.756Z,18.05
2018-11-12T01:57:20.768Z,18.05
2018-11-12T01:58:22.522Z,18.06
2018-11-12T01:59:24.284Z,18.05
2018-11-12T02:00:26.070Z,18.05
2018-11-12T02:01:27.838Z,18.05
2018-11-12T02:02:29.603Z,18.05
2018-11-12T02:03:31.357Z,18.05
2018-11-12T02:04:33.117Z,18.05
2018-11-12T02:05:34.903Z,18.05
2018-11-12T02:06:36.702Z,18.06
2018-11-12T02:07:38.491Z,18.05
2018-11-12T02:08:40.298Z,18.06
2018-11-12T02:09:42.085Z,18.05
2018-11-12T02:10:43.865Z,18.05
2018-11-12T02:11:45.619Z,18.05
2018-11-12T02:12:47.424Z,18.05
2018-11-12T02:13:49.198Z,18.05
2018-11-12T02:14:51.233Z,18.06
2018-11-12T02:15:53.026Z,18.05
2018-11-12T02:16:54.797Z,18.05
2018-11-12T02:17:56.568Z,18.05
2018-11-12T02:18:58.356Z,18.05
2018-11-12T02:20:00.114Z,18.07
2018-11-12T02:21:01.905Z,18.05
2018-11-12T02:22:03.681Z,18.07
2018-11-12T02:23:05.438Z,18.05
2018-11-12T02:24:07.200Z,18.04
2018-11-12T02:25:09.991Z,18.04
2018-11-12T02:26:11.776Z,18.04
2018-11-12T02:27:13.535Z,18.05
2018-11-12T02:28:15.309Z,18.04
2018-11-12T02:29:17.074Z,18.06
2018-11-12T02:30:55.056Z,18.05
2018-11-12T02:31:56.904Z,18.06
2018-11-12T02:32:58.707Z,18.05
2018-11-12T02:34:00.457Z,18.05
2018-11-12T02:35:02.216Z,18.06
2018-11-12T02:36:04.056Z,18.05
2018-11-12T02:37:05.850Z,18.05
2018-11-12T02:38:07.604Z,18.05
2018-11-12T02:39:10.520Z,18.04
2018-11-12T02:40:13.180Z,18.06
2018-11-12T02:41:14.940Z,18.05
2018-11-12T02:42:16.730Z,18.06
2018-11-12T02:43:18.500Z,18.05
2018-11-12T02:44:20.287Z,18.05
2018-11-12T02:45:22.055Z,18.04
2018-11-12T02:46:23.814Z,18.04
2018-11-12T02:47:25.614Z,18.05
2018-11-12T02:48:27.395Z,18.05
2018-11-12T02:49:29.213Z,18.04
2018-11-12T02:50:30.982Z,18.04
2018-11-12T02:51:32.738Z,18.04
2018-11-12T02:52:34.520Z,18.04
2018-11-12T02:53:36.404Z,18.04
2018-11-12T02:54:38.176Z,18.05
2018-11-12T02:55:39.964Z,18.04
2018-11-12T02:56:41.716Z,18.04
2018-11-12T02:57:44.318Z,18.04
2018-11-12T02:58:46.116Z,18.04
2018-11-12T02:59:47.884Z,18.04
2018-11-12T03:00:49.634Z,18.06
2018-11-12T03:01:51.436Z,18.04
2018-11-12T03:02:53.232Z,18.04
2018-11-12T03:03:54.994Z,18.04
2018-11-12T03:04:56.755Z,18.06
2018-11-12T03:05:58.504Z,18.05
2018-11-12T03:07:00.253Z,18.06
2018-11-12T03:08:02.030Z,18.05
2018-11-12T03:09:04.654Z,18.06
2018-11-12T03:10:06.445Z,18.06
2018-11-12T03:11:08.208Z,18.05
2018-11-12T03:12:10.020Z,18.05
2018-11-12T03:13:11.810Z,18.06
2018-11-12T03:14:13.568Z,18.04
2018-11-12T03:15:15.952Z,18.04
2018-11-12T03:16:17.706Z,18.04
2018-11-12T03:17:19.467Z,18.06
2018-11-12T03:18:21.251Z,18.05
2018-11-12T03:19:23.008Z,18.04
2018-11-12T03:20:24.764Z,18.04
2018-11-12T03:21:26.556Z,18.03
2018-11-12T03:22:28.330Z,18.04
2018-11-12T03:23:30.126Z,18.03
2018-11-12T03:24:31.876Z,18.02
2018-11-12T03:25:33.658Z,18.03
2018-11-12T03:26:36.562Z,18.03
2018-11-12T03:27:38.396Z,18.03
2018-11-12T03:28:40.200Z,18.03
2018-11-12T03:29:41.946Z,18.04
2018-11-12T03:30:43.753Z,18.03
2018-11-12T03:31:45.513Z,18.03
2018-11-12T03:32:48.037Z,18.03
2018-11-12T03:33:49.878Z,18.04
2018-11-12T03:34:51.675Z,18.04
2018-11-12T03:35:53.449Z,18.04
2018-11-12T03:36:55.201Z,18.04
2018-11-12T03:37:56.960Z,18.02
2018-11-12T03:38:58.722Z,18.03
2018-11-12T03:40:00.495Z,18.03
2018-11-12T03:41:02.325Z,18.06
2018-11-12T03:42:04.131Z,18.05
2018-11-12T03:43:05.921Z,18.04
2018-11-12T03:44:08.611Z,18.04
2018-11-12T03:45:11.442Z,18.04
2018-11-12T03:46:13.231Z,18.03
2018-11-12T03:47:14.991Z,18.03
2018-11-12T03:48:16.750Z,18.04
2018-11-12T03:49:18.542Z,18.05
2018-11-12T03:50:21.623Z,18.04
2018-11-12T03:51:23.379Z,18.03
2018-11-12T03:52:25.131Z,18.03
2018-11-12T03:53:26.904Z,18.03
2018-11-12T03:54:28.685Z,18.03
2018-11-12T03:55:30.450Z,18.04
2018-11-12T03:56:32.202Z,18.03
2018-11-12T03:57:34.039Z,18.03
2018-11-12T03:58:36.027Z,18.03
2018-11-12T03:59:38.042Z,18.02
2018-11-12T04:00:39.823Z,18.02
2018-11-12T04:01:43.499Z,18.04
2018-11-12T04:02:45.304Z,18.04
2018-11-12T04:03:47.058Z,18.04
2018-11-12T04:04:48.823Z,18.04
2018-11-12T04:05:50.601Z,18.05
2018-11-12T04:06:52.405Z,18.04
2018-11-12T04:07:54.236Z,18.03
2018-11-12T04:08:56.045Z,18.03
2018-11-12T04:09:57.835Z,18.03
2018-11-12T04:10:59.596Z,18.03
2018-11-12T04:12:01.369Z,18.02
2018-11-12T04:13:03.127Z,18.03
2018-11-12T04:14:04.913Z,18.03
2018-11-12T04:15:06.723Z,18.03
2018-11-12T04:16:08.493Z,18.03
2018-11-12T04:17:10.247Z,18.03
2018-11-12T04:18:12.048Z,18.04
2018-11-12T04:19:13.808Z,18.03
2018-11-12T04:20:16.939Z,18.04
2018-11-12T04:21:18.736Z,18.02
2018-11-12T04:22:20.513Z,18.02
2018-11-12T04:23:22.271Z,18.02
2018-11-12T04:24:24.033Z,18.03
2018-11-12T04:25:26.079Z,18.04
2018-11-12T04:26:27.834Z,18.02
2018-11-12T04:27:29.610Z,18.02
2018-11-12T04:28:31.391Z,18.03
2018-11-12T04:29:33.165Z,18.02
2018-11-12T04:30:35.125Z,18.00
2018-11-12T04:31:36.884Z,18.01
2018-11-12T04:32:38.849Z,18.03
2018-11-12T04:33:40.915Z,18.04
2018-11-12T04:34:42.680Z,18.03
2018-11-12T04:35:44.509Z,18.04
2018-11-12T04:36:46.297Z,18.05
2018-11-12T04:37:48.108Z,18.04
2018-11-12T04:38:49.893Z,18.03
2018-11-12T04:39:51.665Z,18.03
2018-11-12T04:40:53.523Z,18.02
2018-11-12T04:41:55.334Z,18.02
2018-11-12T04:42:57.117Z,18.03
2018-11-12T04:43:58.854Z,18.02
2018-11-12T04:45:00.611Z,18.04
2018-11-12T04:46:02.407Z,18.02
2018-11-12T04:47:04.163Z,18.03
2018-11-12T04:48:05.937Z,18.03
2018-11-12T04:49:07.685Z,18.03
2018-11-12T04:50:09.652Z,18.03
2018-11-12T04:51:11.438Z,18.02
2018-11-12T04:52:13.205Z,18.03
2018-11-12T04:53:15.012Z,18.02
2018-11-12T04:54:16.764Z,18.00
2018-11-12T04:55:19.622Z,18.01
2018-11-12T04:56:21.348Z,18.02
2018-11-12T04:57:23.161Z,18.01
2018-11-12T04:58:24.932Z,18.02
2018-11-12T04:59:26.698Z,18.03
2018-11-12T05:00:35.172Z,18.02
2018-11-12T05:01:37.001Z,18.01
2018-11-12T05:02:38.763Z,18.02
2018-11-12T05:03:41.342Z,18.03
2018-11-12T05:04:43.104Z,18.02
2018-11-12T05:05:44.916Z,18.03
2018-11-12T05:06:46.689Z,18.03
2018-11-12T05:07:48.465Z,18.03
2018-11-12T05:08:50.244Z,18.03
2018-11-12T05:09:51.998Z,18.03
2018-11-12T05:10:53.777Z,18.01
2018-11-12T05:11:55.567Z,18.02
2018-11-12T05:12:57.355Z,18.02
2018-11-12T05:13:59.120Z,18.02
2018-11-12T05:15:00.960Z,18.03
2018-11-12T05:16:02.737Z,18.01
2018-11-12T05:17:05.204Z,18.03
2018-11-12T05:18:06.990Z,18.02
2018-11-12T05:19:08.834Z,18.01
2018-11-12T05:20:11.803Z,18.02
2018-11-12T05:21:13.587Z,18.01
2018-11-12T05:22:15.422Z,18.02
2018-11-12T05:23:17.199Z,18.04
2018-11-12T05:24:18.959Z,18.04
2018-11-12T05:25:20.713Z,18.04
2018-11-12T05:26:22.495Z,18.05
2018-11-12T05:27:24.921Z,18.04
2018-11-12T05:28:26.676Z,18.04
2018-11-12T05:29:28.440Z,18.05
2018-11-12T05:30:30.302Z,18.04
2018-11-12T05:31:32.090Z,18.03
2018-11-12T05:32:33.877Z,18.02
2018-11-12T05:33:35.646Z,18.02
2018-11-12T05:34:37.405Z,18.02
2018-11-12T05:35:39.185Z,18.03
2018-11-12T05:36:40.991Z,18.03
2018-11-12T05:37:43.115Z,18.02
2018-11-12T05:38:44.898Z,18.02
2018-11-12T05:39:46.679Z,18.02
2018-11-12T05:40:48.458Z,18.02
2018-11-12T05:41:50.244Z,18.05
2018-11-12T05:42:52.102Z,18.09
2018-11-12T05:43:53.860Z,18.09
2018-11-12T05:44:55.723Z,18.10
2018-11-12T05:45:57.440Z,18.12
2018-11-12T05:46:59.202Z,18.13
2018-11-12T05:48:01.009Z,18.12
2018-11-12T05:49:02.968Z,18.11
2018-11-12T05:50:04.722Z,18.08
2018-11-12T05:51:06.502Z,18.08
2018-11-12T05:52:08.272Z,18.07
2018-11-12T05:53:10.074Z,18.05
2018-11-12T05:54:11.860Z,18.06
2018-11-12T05:55:15.055Z,18.05
2018-11-12T05:56:16.809Z,18.05
2018-11-12T05:57:18.684Z,18.06
2018-11-12T05:58:20.463Z,18.06
2018-11-12T05:59:22.243Z,18.05
2018-11-12T06:00:26.721Z,18.05
2018-11-12T06:01:28.535Z,18.04
2018-11-12T06:02:30.304Z,18.03
2018-11-12T06:03:32.096Z,18.05
2018-11-12T06:04:33.876Z,18.04
2018-11-12T06:05:35.850Z,18.02
2018-11-12T06:06:37.656Z,18.06
2018-11-12T06:07:39.564Z,18.10
2018-11-12T06:08:41.894Z,18.14
2018-11-12T06:09:43.664Z,18.15
2018-11-12T06:10:45.458Z,18.15
2018-11-12T06:11:47.218Z,18.12
2018-11-12T06:12:49.237Z,18.14
2018-11-12T06:13:51.052Z,18.09
2018-11-12T06:14:52.828Z,18.08
2018-11-12T06:15:55.447Z,18.06
2018-11-12T06:16:57.420Z,18.04
2018-11-12T06:17:59.211Z,18.03
2018-11-12T06:19:00.991Z,18.03
2018-11-12T06:20:02.966Z,18.02
2018-11-12T06:21:04.845Z,18.01
2018-11-12T06:22:06.712Z,18.02
2018-11-12T06:23:08.480Z,18.02
2018-11-12T06:24:10.262Z,18.02
2018-11-12T06:25:13.336Z,18.02
2018-11-12T06:26:15.098Z,18.01
2018-11-12T06:27:18.010Z,18.02
2018-11-12T06:28:20.312Z,18.01
2018-11-12T06:29:22.106Z,18.04
2018-11-12T06:30:25.085Z,18.03
2018-11-12T06:31:27.135Z,18.03
2018-11-12T06:32:31.170Z,18.01
2018-11-12T06:33:32.981Z,18.04
2018-11-12T06:34:34.763Z,18.02
2018-11-12T06:35:36.786Z,18.02
2018-11-12T06:36:38.612Z,18.03
2018-11-12T06:37:40.914Z,18.03
2018-11-12T06:38:42.684Z,18.03
2018-11-12T06:39:44.471Z,18.04
2018-11-12T06:41:59.764Z,18.12
2018-11-12T06:43:02.099Z,18.13
2018-11-12T06:44:03.828Z,18.16
2018-11-12T06:45:05.790Z,18.12
2018-11-12T06:46:07.643Z,18.16
2018-11-12T06:47:09.409Z,18.21
2018-11-12T06:48:11.308Z,18.24
2018-11-12T06:49:13.314Z,18.26
2018-11-12T06:50:16.423Z,18.27
2018-11-12T06:51:18.330Z,18.29
2018-11-12T06:52:20.131Z,18.29
2018-11-12T06:53:21.953Z,18.29
2018-11-12T06:54:23.712Z,18.29
2018-11-12T06:55:25.497Z,18.29
2018-11-12T06:56:27.376Z,18.31
2018-11-12T06:57:29.126Z,18.31
2018-11-12T06:58:30.989Z,18.30
2018-11-12T06:59:32.919Z,18.29
2018-11-12T07:00:35.426Z,18.29
2018-11-12T07:01:37.195Z,18.26
2018-11-12T07:02:39.076Z,18.25
2018-11-12T07:03:41.062Z,18.27
2018-11-12T07:04:42.995Z,18.28
2018-11-12T07:05:44.778Z,18.28
2018-11-12T07:06:46.583Z,18.27
2018-11-12T07:07:48.329Z,18.26
2018-11-12T07:08:50.091Z,18.23
2018-11-12T07:09:51.856Z,18.24
2018-11-12T07:10:53.644Z,18.24
2018-11-12T07:11:55.410Z,18.23
2018-11-12T07:12:57.918Z,18.21
2018-11-12T07:14:00.123Z,18.22
2018-11-12T07:15:01.896Z,18.21
2018-11-12T07:16:03.658Z,18.22
2018-11-12T07:17:05.502Z,18.23
2018-11-12T07:18:07.280Z,18.20
2018-11-12T07:19:09.062Z,18.22
2018-11-12T07:20:10.847Z,18.22
2018-11-12T07:21:12.623Z,18.22
2018-11-12T07:22:14.396Z,18.21
2018-11-12T07:23:16.152Z,18.20
2018-11-12T07:24:17.934Z,18.21
2018-11-12T07:25:23.479Z,18.23
2018-11-12T07:26:25.369Z,18.24
2018-11-12T07:27:27.138Z,18.22
2018-11-12T07:28:29.373Z,18.23
2018-11-12T07:29:31.137Z,18.21
2018-11-12T07:30:33.078Z,18.22
2018-11-12T07:31:34.820Z,18.20
2018-11-12T07:32:36.715Z,18.20
2018-11-12T07:33:38.498Z,18.20
2018-11-12T07:34:40.251Z,18.21
2018-11-12T07:35:42.125Z,18.22
2018-11-12T07:36:43.887Z,18.21
2018-11-12T07:37:46.829Z,18.22
2018-11-12T07:38:48.681Z,18.22
2018-11-12T07:39:50.559Z,18.20
2018-11-12T07:40:52.317Z,18.17
2018-11-12T07:41:54.163Z,18.16
2018-11-12T07:42:55.893Z,18.12
2018-11-12T07:43:58.628Z,18.07
2018-11-12T07:45:00.395Z,18.05
2018-11-12T07:46:02.802Z,18.03
2018-11-12T07:47:04.839Z,18.01
2018-11-12T07:48:07.504Z,18.00
2018-11-12T07:49:10.719Z,18.00
2018-11-12T07:50:13.745Z,17.99
2018-11-12T07:51:15.596Z,18.00
2018-11-12T07:52:17.363Z,17.97
2018-11-12T07:53:19.143Z,17.97
2018-11-12T07:54:20.954Z,17.96
2018-11-12T07:55:25.115Z,17.96
2018-11-12T07:56:27.195Z,17.96
2018-11-12T07:57:28.992Z,17.95
2018-11-12T07:58:31.090Z,17.94
2018-11-12T07:59:36.653Z,17.94
2018-11-12T08:00:39.107Z,17.93
2018-11-12T08:01:41.549Z,17.92
2018-11-12T08:02:44.264Z,17.93
2018-11-12T08:03:46.142Z,17.93
2018-11-12T08:04:47.879Z,17.92
2018-11-12T08:05:49.650Z,17.93
2018-11-12T08:06:51.445Z,17.92
2018-11-12T08:07:53.569Z,17.92
2018-11-12T08:08:55.418Z,17.91
2018-11-12T08:09:57.389Z,17.91
2018-11-12T08:10:59.243Z,17.92
2018-11-12T08:12:01.129Z,17.91
2018-11-12T08:13:02.974Z,17.92
2018-11-12T08:14:04.730Z,17.91
2018-11-12T08:15:06.504Z,17.91
2018-11-12T08:16:08.289Z,17.91
2018-11-12T08:17:10.051Z,17.92
2018-11-12T08:18:11.815Z,17.90
2018-11-12T08:19:13.572Z,17.91
2018-11-12T08:20:16.624Z,17.90
2018-11-12T08:21:18.535Z,17.90
2018-11-12T08:22:20.335Z,17.90
2018-11-12T08:23:22.121Z,17.89
2018-11-12T08:24:24.088Z,17.90
2018-11-12T08:25:25.819Z,17.90
2018-11-12T08:26:27.936Z,17.90
2018-11-12T08:27:29.791Z,17.89
2018-11-12T08:28:31.552Z,17.90
2018-11-12T08:29:33.324Z,17.88
2018-11-12T08:30:35.112Z,17.88
2018-11-12T08:31:36.901Z,17.89
2018-11-12T08:32:38.662Z,17.89
2018-11-12T08:33:40.528Z,17.88
2018-11-12T08:34:42.434Z,17.88
2018-11-12T08:35:45.005Z,17.88
2018-11-12T08:36:46.754Z,17.88
2018-11-12T08:37:49.183Z,17.88
2018-11-12T08:38:51.244Z,17.88
2018-11-12T08:39:53.092Z,17.87
2018-11-12T08:40:54.954Z,17.88
2018-11-12T08:41:56.611Z,17.88
2018-11-12T08:42:58.383Z,17.87
2018-11-12T08:44:00.269Z,17.87
2018-11-12T08:45:02.444Z,17.87
2018-11-12T08:46:05.224Z,17.87
2018-11-12T08:47:06.966Z,17.87
2018-11-12T08:48:08.817Z,17.86
2018-11-12T08:49:10.771Z,17.86
2018-11-12T08:50:13.122Z,17.86
2018-11-12T08:51:14.943Z,17.86
2018-11-12T08:52:16.785Z,17.85
2018-11-12T08:53:18.581Z,17.85
2018-11-12T08:54:20.419Z,17.84
2018-11-12T08:55:23.536Z,17.85
2018-11-12T08:56:25.307Z,17.85
2018-11-12T08:57:27.098Z,17.85
2018-11-12T08:58:28.992Z,17.83
2018-11-12T08:59:30.834Z,17.84
2018-11-12T09:00:33.280Z,17.83
2018-11-12T09:01:35.092Z,17.83
2018-11-12T09:02:36.863Z,17.82
2018-11-12T09:03:38.678Z,17.83
2018-11-12T09:04:40.775Z,17.82
2018-11-12T09:05:42.603Z,17.82
2018-11-12T09:06:44.783Z,17.83
2018-11-12T09:07:48.216Z,17.82
2018-11-12T09:08:50.089Z,17.83
2018-11-12T09:09:51.962Z,17.83
2018-11-12T09:10:53.691Z,17.82
2018-11-12T09:11:55.460Z,17.83
2018-11-12T09:12:57.273Z,17.83
2018-11-12T09:13:59.037Z,17.82
2018-11-12T09:15:00.916Z,17.82
2018-11-12T09:16:02.732Z,17.82
2018-11-12T09:17:04.512Z,17.82
2018-11-12T09:18:06.709Z,17.82
2018-11-12T09:19:08.508Z,17.82
2018-11-12T09:20:11.636Z,17.82
2018-11-12T09:21:13.494Z,17.81
2018-11-12T09:22:15.248Z,17.82
2018-11-12T09:23:17.044Z,17.81
2018-11-12T09:24:18.923Z,17.82
2018-11-12T09:25:21.781Z,17.82
2018-11-12T09:26:23.584Z,17.81
2018-11-12T09:27:25.354Z,17.82
2018-11-12T09:28:27.208Z,17.82
2018-11-12T09:29:29.365Z,17.82
2018-11-12T09:30:31.454Z,17.81
2018-11-12T09:31:33.247Z,17.81
2018-11-12T09:32:34.816Z,17.81
2018-11-12T09:33:36.578Z,17.81
2018-11-12T09:34:38.410Z,17.81
2018-11-12T09:35:40.309Z,17.81
2018-11-12T09:36:42.191Z,17.82
2018-11-12T09:37:45.174Z,17.81
2018-11-12T09:38:47.099Z,17.82
2018-11-12T09:39:48.858Z,17.82
2018-11-12T09:40:50.643Z,17.82
2018-11-12T09:41:52.428Z,17.81
2018-11-12T09:42:54.376Z,17.81
2018-11-12T09:43:56.134Z,17.82
2018-11-12T09:44:57.908Z,17.81
2018-11-12T09:45:59.824Z,17.82
2018-11-12T09:47:01.711Z,17.81
2018-11-12T09:48:03.492Z,17.80
2018-11-12T09:49:05.311Z,17.82
2018-11-12T09:50:07.083Z,17.81
2018-11-12T09:51:08.846Z,17.81
2018-11-12T09:52:10.635Z,17.82
2018-11-12T09:53:12.580Z,17.82
2018-11-12T09:54:14.464Z,17.81
2018-11-12T09:55:17.169Z,17.81
2018-11-12T09:56:18.954Z,17.80
2018-11-12T09:57:20.877Z,17.81
2018-11-12T09:59:30.901Z,17.81
2018-11-12T10:00:32.766Z,17.80
2018-11-12T10:01:34.745Z,17.81
2018-11-12T10:02:37.021Z,17.81
2018-11-12T10:03:39.044Z,17.82
2018-11-12T10:04:41.333Z,17.80
2018-11-12T10:05:43.042Z,17.81
2018-11-12T10:06:44.775Z,17.81
2018-11-12T10:07:47.568Z,17.81
2018-11-12T10:08:48.887Z,17.80
2018-11-12T10:09:51.833Z,17.81
2018-11-12T10:10:57.153Z,17.80
2018-11-12T10:11:58.141Z,17.80
2018-11-12T10:12:59.941Z,17.81
2018-11-12T10:14:01.820Z,17.80
2018-11-12T10:15:05.287Z,17.80
2018-11-12T10:16:06.449Z,17.81
2018-11-12T10:17:07.903Z,17.79
2018-11-12T10:18:09.210Z,17.79
2018-11-12T10:19:08.965Z,17.80
2018-11-12T10:20:10.805Z,17.80
2018-11-12T10:21:12.596Z,17.80
2018-11-12T10:22:15.426Z,17.80
2018-11-12T10:23:17.592Z,17.81
2018-11-12T10:24:19.395Z,17.80
2018-11-12T10:25:21.508Z,17.80
2018-11-12T10:26:23.313Z,17.80
2018-11-12T10:27:25.044Z,17.80
2018-11-12T10:28:26.814Z,17.79
2018-11-12T10:29:28.600Z,17.79
2018-11-12T10:30:30.368Z,17.80
2018-11-12T10:31:32.164Z,17.80
2018-11-12T10:32:33.938Z,17.79
2018-11-12T10:33:35.734Z,17.78
2018-11-12T10:34:37.513Z,17.80
2018-11-12T10:35:39.278Z,17.79
2018-11-12T10:36:41.450Z,17.79
2018-11-12T10:37:43.206Z,17.79
2018-11-12T10:38:44.971Z,17.78
2018-11-12T10:39:46.851Z,17.78
2018-11-12T10:40:48.648Z,17.79
2018-11-12T10:41:50.476Z,17.79
2018-11-12T10:42:52.358Z,17.79
2018-11-12T10:43:54.068Z,17.79
2018-11-12T10:44:55.827Z,17.80
2018-11-12T10:45:57.623Z,17.79
2018-11-12T10:46:59.455Z,17.79
2018-11-12T10:48:01.410Z,17.78
2018-11-12T10:49:03.226Z,17.79
2018-11-12T10:50:05.052Z,17.78
2018-11-12T10:51:06.819Z,17.78
2018-11-12T10:52:08.604Z,17.78
2018-11-12T10:53:10.388Z,17.79
2018-11-12T10:54:12.249Z,17.78
2018-11-12T10:55:15.227Z,17.78
2018-11-12T10:56:17.035Z,17.77
2018-11-12T10:57:18.831Z,17.77
2018-11-12T10:58:20.624Z,17.78
2018-11-12T10:59:22.428Z,17.78
2018-11-12T11:00:29.605Z,17.78
2018-11-12T11:01:35.742Z,17.78
2018-11-12T11:02:41.776Z,17.78
2018-11-12T11:03:46.082Z,17.79
2018-11-12T11:04:47.859Z,17.77
2018-11-12T11:05:51.426Z,17.78
2018-11-12T11:06:53.232Z,17.77
2018-11-12T11:07:55.707Z,17.89
2018-11-12T11:08:57.450Z,17.91
2018-11-12T11:09:59.928Z,17.91
2018-11-12T11:11:01.956Z,17.87
2018-11-12T11:12:03.747Z,17.85
2018-11-12T11:13:05.973Z,17.83
2018-11-12T11:14:08.270Z,17.82
2018-11-12T11:15:10.189Z,17.81
2018-11-12T11:16:12.308Z,17.80
2018-11-12T11:17:14.090Z,17.79
2018-11-12T11:18:15.845Z,17.80
2018-11-12T11:19:17.623Z,17.80
2018-11-12T11:20:19.400Z,17.79
2018-11-12T11:21:21.215Z,17.80
2018-11-12T11:22:22.973Z,17.80
2018-11-12T11:23:24.734Z,17.79
2018-11-12T11:24:26.489Z,17.79
2018-11-12T11:25:28.306Z,17.79
2018-11-12T11:26:30.088Z,17.79
2018-11-12T11:27:31.877Z,17.80
2018-11-12T11:28:33.650Z,17.80
2018-11-12T11:29:35.464Z,17.80
2018-11-12T11:30:37.207Z,17.79
2018-11-12T11:31:39.591Z,17.79
2018-11-12T11:32:41.468Z,17.79
2018-11-12T11:33:43.439Z,17.80
2018-11-12T11:34:45.216Z,17.78
2018-11-12T11:35:46.981Z,17.78
2018-11-12T11:36:48.738Z,17.79
2018-11-12T11:37:50.523Z,17.79
2018-11-12T11:38:52.358Z,17.78
2018-11-12T11:39:54.157Z,17.78
2018-11-12T11:40:56.010Z,17.79
2018-11-12T11:41:57.786Z,17.79
2018-11-12T11:42:59.618Z,17.78
2018-11-12T11:44:01.422Z,17.79
2018-11-12T11:45:03.166Z,17.78
2018-11-12T11:46:06.066Z,17.79
2018-11-12T11:47:07.860Z,17.77
2018-11-12T11:48:09.708Z,17.78
2018-11-12T11:49:13.291Z,17.78
2018-11-12T11:50:16.606Z,17.78
2018-11-12T11:51:18.371Z,17.78
2018-11-12T11:52:20.157Z,17.78
2018-11-12T11:53:21.921Z,17.78
2018-11-12T11:54:23.757Z,17.78
2018-11-12T11:55:25.828Z,17.78
2018-11-12T11:56:29.357Z,17.78
2018-11-12T11:57:31.402Z,17.79
2018-11-12T11:58:33.161Z,17.78
2018-11-12T11:59:34.957Z,17.79
2018-11-12T12:00:37.949Z,17.78
2018-11-12T12:01:40.058Z,17.78
2018-11-12T12:02:43.791Z,17.77
2018-11-12T12:03:45.495Z,17.78
2018-11-12T12:04:47.311Z,17.77
2018-11-12T12:05:49.168Z,17.78
2018-11-12T12:06:50.941Z,17.78
2018-11-12T12:07:53.591Z,17.78
2018-11-12T12:08:55.471Z,17.79
2018-11-12T12:09:57.139Z,17.79
2018-11-12T12:10:58.889Z,17.79
2018-11-12T12:12:00.669Z,17.79
2018-11-12T12:13:02.463Z,17.78
2018-11-12T12:14:04.226Z,17.78
2018-11-12T12:15:05.975Z,17.79
2018-11-12T12:16:07.904Z,17.78
2018-11-12T12:17:09.666Z,17.79
2018-11-12T12:18:11.473Z,17.78
2018-11-12T12:19:13.463Z,17.78
2018-11-12T12:20:20.641Z,17.78
2018-11-12T12:21:22.395Z,17.78
2018-11-12T12:22:24.167Z,17.78
2018-11-12T12:23:26.504Z,17.77
2018-11-12T12:24:28.484Z,17.78
2018-11-12T12:25:30.334Z,17.78
2018-11-12T12:26:32.085Z,17.79
2018-11-12T12:27:34.256Z,17.79
2018-11-12T12:28:36.166Z,17.78
2018-11-12T12:29:37.936Z,17.79
2018-11-12T12:30:39.854Z,17.78
2018-11-12T12:31:41.625Z,17.79
2018-11-12T12:32:44.734Z,17.79
2018-11-12T12:33:46.476Z,17.78
2018-11-12T12:34:48.249Z,17.79
2018-11-12T12:35:50.120Z,17.79
2018-11-12T12:36:52.122Z,17.79
2018-11-12T12:37:54.107Z,17.80
2018-11-12T12:38:55.894Z,17.79
2018-11-12T12:39:57.824Z,17.79
2018-11-12T12:40:59.792Z,17.79
2018-11-12T12:42:01.564Z,17.78
2018-11-12T12:43:03.339Z,17.79
2018-11-12T12:44:05.169Z,17.79
2018-11-12T12:45:07.068Z,17.79
2018-11-12T12:46:08.843Z,17.79
2018-11-12T12:47:10.985Z,17.79
2018-11-12T12:48:12.996Z,17.79
2018-11-12T12:49:14.790Z,17.79
2018-11-12T12:50:17.309Z,17.79
2018-11-12T12:51:19.088Z,17.80
2018-11-12T12:52:20.908Z,17.79
2018-11-12T12:53:22.755Z,17.80
2018-11-12T12:54:24.697Z,17.79
2018-11-12T12:55:26.478Z,17.79
2018-11-12T12:56:28.339Z,17.80
2018-11-12T12:57:30.062Z,17.78
2018-11-12T12:58:31.854Z,17.78
2018-11-12T12:59:33.620Z,17.79
2018-11-12T13:00:35.390Z,17.78
2018-11-12T13:01:38.111Z,17.79
2018-11-12T13:02:40.516Z,17.79
2018-11-12T13:03:42.398Z,17.78
2018-11-12T13:04:44.601Z,17.78
2018-11-12T13:05:46.369Z,17.79
2018-11-12T13:06:48.140Z,17.78
2018-11-12T13:07:49.957Z,17.79
2018-11-12T13:08:51.736Z,17.78
2018-11-12T13:09:53.504Z,17.79
2018-11-12T13:10:55.260Z,17.78
2018-11-12T13:11:57.032Z,17.79
2018-11-12T13:12:58.838Z,17.79
2018-11-12T13:14:00.709Z,17.79
2018-11-12T13:15:02.481Z,17.78
2018-11-12T13:16:04.233Z,17.79
2018-11-12T13:17:06.029Z,17.79
2018-11-12T13:18:08.006Z,17.78
2018-11-12T13:19:09.775Z,17.78
2018-11-12T13:20:12.305Z,17.78
2018-11-12T13:21:14.127Z,17.78